sensor_id;sensor_type;location;lat;lon;timestamp;temperature;humidity
758;DHT22;363;48.764;9.172;2023-02-28T00:00:33;1.00;83.50
758;DHT22;363;48.764;9.172;2023-02-28T00:02:59;1.10;83.60
758;DHT22;363;48.764;9.172;2023-02-28T00:05:26;0.30;83.40
758;DHT22;363;48.764;9.172;2023-02-28T00:07:52;1.00;84.70
758;DHT22;363;48.764;9.172;2023-02-28T00:10:21;0.80;85.80
758;DHT22;363;48.764;9.172;2023-02-28T00:12:49;1.00;85.80
758;DHT22;363;48.764;9.172;2023-02-28T00:15:15;0.90;85.70
758;DHT22;363;48.764;9.172;2023-02-28T00:17:40;0.70;85.10
758;DHT22;363;48.764;9.172;2023-02-28T00:20:07;0.30;85.60
758;DHT22;363;48.764;9.172;2023-02-28T00:22:49;0.70;85.30
758;DHT22;363;48.764;9.172;2023-02-28T00:25:18;0.90;85.40
758;DHT22;363;48.764;9.172;2023-02-28T00:27:45;0.60;86.60
758;DHT22;363;48.764;9.172;2023-02-28T00:30:13;0.00;86.90
758;DHT22;363;48.764;9.172;2023-02-28T00:32:39;0.80;87.90
758;DHT22;363;48.764;9.172;2023-02-28T00:35:05;0.60;87.10
758;DHT22;363;48.764;9.172;2023-02-28T00:37:31;0.70;86.70
758;DHT22;363;48.764;9.172;2023-02-28T00:39:57;0.80;86.90
758;DHT22;363;48.764;9.172;2023-02-28T00:42:23;0.80;87.50
758;DHT22;363;48.764;9.172;2023-02-28T00:44:49;1.00;88.20
758;DHT22;363;48.764;9.172;2023-02-28T00:47:15;0.50;87.90
758;DHT22;363;48.764;9.172;2023-02-28T00:49:41;0.60;87.70
758;DHT22;363;48.764;9.172;2023-02-28T00:52:07;0.60;89.10
758;DHT22;363;48.764;9.172;2023-02-28T00:54:33;0.60;88.80
758;DHT22;363;48.764;9.172;2023-02-28T00:56:58;-0.10;88.00
758;DHT22;363;48.764;9.172;2023-02-28T00:59:24;-0.10;88.90
758;DHT22;363;48.764;9.172;2023-02-28T01:01:50;0.50;89.30
758;DHT22;363;48.764;9.172;2023-02-28T01:04:16;0.50;89.40
758;DHT22;363;48.764;9.172;2023-02-28T01:06:42;1.00;90.30
758;DHT22;363;48.764;9.172;2023-02-28T01:09:08;0.70;89.80
758;DHT22;363;48.764;9.172;2023-02-28T01:11:34;0.60;90.00
758;DHT22;363;48.764;9.172;2023-02-28T01:14:00;0.40;89.60
758;DHT22;363;48.764;9.172;2023-02-28T01:16:26;0.90;90.50
758;DHT22;363;48.764;9.172;2023-02-28T01:18:52;0.40;90.30
758;DHT22;363;48.764;9.172;2023-02-28T01:21:19;0.60;90.60
758;DHT22;363;48.764;9.172;2023-02-28T01:23:46;-0.20;90.60
758;DHT22;363;48.764;9.172;2023-02-28T01:26:22;0.50;90.70
758;DHT22;363;48.764;9.172;2023-02-28T01:28:49;0.90;91.30
758;DHT22;363;48.764;9.172;2023-02-28T01:31:15;0.20;90.90
758;DHT22;363;48.764;9.172;2023-02-28T01:33:41;0.30;91.20
758;DHT22;363;48.764;9.172;2023-02-28T01:36:13;0.50;91.60
758;DHT22;363;48.764;9.172;2023-02-28T01:38:39;0.20;92.10
758;DHT22;363;48.764;9.172;2023-02-28T01:41:06;0.40;92.10
758;DHT22;363;48.764;9.172;2023-02-28T01:43:53;0.40;92.30
758;DHT22;363;48.764;9.172;2023-02-28T01:46:19;0.30;92.40
758;DHT22;363;48.764;9.172;2023-02-28T01:49:09;0.30;92.40
758;DHT22;363;48.764;9.172;2023-02-28T01:54:22;0.20;92.80
758;DHT22;363;48.764;9.172;2023-02-28T01:57:03;0.10;93.00
758;DHT22;363;48.764;9.172;2023-02-28T02:01:57;0.20;93.20
758;DHT22;363;48.764;9.172;2023-02-28T02:04:27;0.20;93.20
758;DHT22;363;48.764;9.172;2023-02-28T02:06:53;0.10;93.50
758;DHT22;363;48.764;9.172;2023-02-28T02:09:20;0.30;93.80
758;DHT22;363;48.764;9.172;2023-02-28T02:11:46;0.20;93.70
758;DHT22;363;48.764;9.172;2023-02-28T02:25:26;0.30;94.20
758;DHT22;363;48.764;9.172;2023-02-28T02:28:17;0.30;94.20
758;DHT22;363;48.764;9.172;2023-02-28T02:39:08;0.30;94.90
758;DHT22;363;48.764;9.172;2023-02-28T02:44:12;0.30;95.00
758;DHT22;363;48.764;9.172;2023-02-28T02:46:42;0.50;95.00
758;DHT22;363;48.764;9.172;2023-02-28T02:49:15;0.90;95.00
758;DHT22;363;48.764;9.172;2023-02-28T02:51:41;0.50;95.20
758;DHT22;363;48.764;9.172;2023-02-28T02:54:12;0.20;94.90
758;DHT22;363;48.764;9.172;2023-02-28T02:56:42;-0.30;95.30
758;DHT22;363;48.764;9.172;2023-02-28T02:59:12;0.40;95.90
758;DHT22;363;48.764;9.172;2023-02-28T03:01:39;0.20;96.10
758;DHT22;363;48.764;9.172;2023-02-28T03:04:10;0.30;96.30
758;DHT22;363;48.764;9.172;2023-02-28T03:06:36;0.40;96.30
758;DHT22;363;48.764;9.172;2023-02-28T03:09:02;0.00;95.90
758;DHT22;363;48.764;9.172;2023-02-28T03:11:28;0.60;96.20
758;DHT22;363;48.764;9.172;2023-02-28T03:19:29;0.60;96.40
758;DHT22;363;48.764;9.172;2023-02-28T03:24:45;0.60;96.80
758;DHT22;363;48.764;9.172;2023-02-28T03:27:29;0.40;96.80
758;DHT22;363;48.764;9.172;2023-02-28T03:30:05;0.50;96.90
758;DHT22;363;48.764;9.172;2023-02-28T03:32:57;0.60;96.70
758;DHT22;363;48.764;9.172;2023-02-28T03:35:27;0.60;96.70
758;DHT22;363;48.764;9.172;2023-02-28T03:38:14;0.00;96.60
758;DHT22;363;48.764;9.172;2023-02-28T03:40:47;0.70;96.90
758;DHT22;363;48.764;9.172;2023-02-28T03:43:20;0.70;96.80
758;DHT22;363;48.764;9.172;2023-02-28T03:45:49;0.70;96.90
758;DHT22;363;48.764;9.172;2023-02-28T03:48:21;0.50;97.10
758;DHT22;363;48.764;9.172;2023-02-28T03:50:54;0.70;97.70
758;DHT22;363;48.764;9.172;2023-02-28T03:55:58;0.50;97.60
758;DHT22;363;48.764;9.172;2023-02-28T03:58:38;0.50;97.30
758;DHT22;363;48.764;9.172;2023-02-28T04:01:17;0.70;97.60
758;DHT22;363;48.764;9.172;2023-02-28T04:03:44;0.60;97.80
758;DHT22;363;48.764;9.172;2023-02-28T04:06:16;0.80;98.10
758;DHT22;363;48.764;9.172;2023-02-28T04:08:42;0.90;97.70
758;DHT22;363;48.764;9.172;2023-02-28T04:13:53;0.70;97.50
758;DHT22;363;48.764;9.172;2023-02-28T04:16:19;0.90;97.70
758;DHT22;363;48.764;9.172;2023-02-28T04:18:44;0.90;97.50
758;DHT22;363;48.764;9.172;2023-02-28T04:21:10;0.90;97.40
758;DHT22;363;48.764;9.172;2023-02-28T04:23:36;0.90;97.10
758;DHT22;363;48.764;9.172;2023-02-28T04:26:02;0.80;97.10
758;DHT22;363;48.764;9.172;2023-02-28T04:28:27;0.90;97.30
758;DHT22;363;48.764;9.172;2023-02-28T04:30:58;1.00;97.20
758;DHT22;363;48.764;9.172;2023-02-28T04:33:24;0.60;97.50
758;DHT22;363;48.764;9.172;2023-02-28T04:36:08;0.90;97.60
758;DHT22;363;48.764;9.172;2023-02-28T04:38:36;0.90;97.20
758;DHT22;363;48.764;9.172;2023-02-28T04:41:02;0.60;97.00
758;DHT22;363;48.764;9.172;2023-02-28T04:43:29;1.00;97.20
758;DHT22;363;48.764;9.172;2023-02-28T04:45:55;1.00;97.60
758;DHT22;363;48.764;9.172;2023-02-28T04:48:25;1.30;97.90
758;DHT22;363;48.764;9.172;2023-02-28T04:50:52;1.10;97.60
758;DHT22;363;48.764;9.172;2023-02-28T04:53:18;1.00;97.70
758;DHT22;363;48.764;9.172;2023-02-28T04:55:44;1.00;97.50
758;DHT22;363;48.764;9.172;2023-02-28T04:58:10;1.10;97.50
758;DHT22;363;48.764;9.172;2023-02-28T05:00:36;1.00;97.60
758;DHT22;363;48.764;9.172;2023-02-28T05:03:01;0.80;97.70
758;DHT22;363;48.764;9.172;2023-02-28T05:05:27;1.60;98.00
758;DHT22;363;48.764;9.172;2023-02-28T05:07:53;1.20;97.90
758;DHT22;363;48.764;9.172;2023-02-28T05:10:21;0.70;97.40
758;DHT22;363;48.764;9.172;2023-02-28T05:12:47;1.00;97.10
758;DHT22;363;48.764;9.172;2023-02-28T05:15:15;1.10;97.20
758;DHT22;363;48.764;9.172;2023-02-28T05:17:41;1.20;96.90
758;DHT22;363;48.764;9.172;2023-02-28T05:20:08;1.20;97.40
758;DHT22;363;48.764;9.172;2023-02-28T05:22:37;1.20;97.40
758;DHT22;363;48.764;9.172;2023-02-28T05:25:03;1.00;97.70
758;DHT22;363;48.764;9.172;2023-02-28T05:27:30;0.90;97.40
758;DHT22;363;48.764;9.172;2023-02-28T05:29:56;1.10;97.80
758;DHT22;363;48.764;9.172;2023-02-28T05:32:22;1.10;97.70
758;DHT22;363;48.764;9.172;2023-02-28T05:34:47;1.00;97.90
758;DHT22;363;48.764;9.172;2023-02-28T05:37:14;1.20;98.50
758;DHT22;363;48.764;9.172;2023-02-28T05:39:41;1.10;98.20
758;DHT22;363;48.764;9.172;2023-02-28T05:42:07;1.00;98.30
758;DHT22;363;48.764;9.172;2023-02-28T05:44:33;1.20;98.30
758;DHT22;363;48.764;9.172;2023-02-28T05:46:59;1.20;98.30
758;DHT22;363;48.764;9.172;2023-02-28T05:49:24;1.00;98.40
758;DHT22;363;48.764;9.172;2023-02-28T05:51:50;1.10;98.30
758;DHT22;363;48.764;9.172;2023-02-28T05:54:16;1.60;98.50
758;DHT22;363;48.764;9.172;2023-02-28T05:56:41;1.30;98.30
758;DHT22;363;48.764;9.172;2023-02-28T05:59:13;1.00;98.50
758;DHT22;363;48.764;9.172;2023-02-28T06:01:42;1.10;98.50
758;DHT22;363;48.764;9.172;2023-02-28T06:04:14;1.10;98.00
758;DHT22;363;48.764;9.172;2023-02-28T06:06:44;1.00;98.30
758;DHT22;363;48.764;9.172;2023-02-28T06:09:10;1.10;98.60
758;DHT22;363;48.764;9.172;2023-02-28T06:11:35;1.40;98.80
758;DHT22;363;48.764;9.172;2023-02-28T06:14:02;0.90;98.30
758;DHT22;363;48.764;9.172;2023-02-28T06:16:29;1.00;98.60
758;DHT22;363;48.764;9.172;2023-02-28T06:18:57;1.10;98.90
758;DHT22;363;48.764;9.172;2023-02-28T06:21:23;1.60;99.00
758;DHT22;363;48.764;9.172;2023-02-28T06:23:49;1.10;98.70
758;DHT22;363;48.764;9.172;2023-02-28T06:26:15;1.10;98.80
758;DHT22;363;48.764;9.172;2023-02-28T06:28:41;1.30;98.80
758;DHT22;363;48.764;9.172;2023-02-28T06:31:12;1.20;98.50
758;DHT22;363;48.764;9.172;2023-02-28T06:33:38;1.10;98.60
758;DHT22;363;48.764;9.172;2023-02-28T06:36:05;1.40;98.50
758;DHT22;363;48.764;9.172;2023-02-28T06:38:32;1.10;98.40
758;DHT22;363;48.764;9.172;2023-02-28T06:40:59;1.40;98.60
758;DHT22;363;48.764;9.172;2023-02-28T06:43:28;1.40;98.20
758;DHT22;363;48.764;9.172;2023-02-28T06:45:55;1.40;98.40
758;DHT22;363;48.764;9.172;2023-02-28T06:48:21;1.40;98.50
758;DHT22;363;48.764;9.172;2023-02-28T06:50:47;1.20;98.30
758;DHT22;363;48.764;9.172;2023-02-28T06:53:13;1.40;98.40
758;DHT22;363;48.764;9.172;2023-02-28T06:55:39;1.50;98.30
758;DHT22;363;48.764;9.172;2023-02-28T06:58:05;1.50;98.20
758;DHT22;363;48.764;9.172;2023-02-28T07:00:41;1.50;97.90
758;DHT22;363;48.764;9.172;2023-02-28T07:03:07;1.60;97.70
758;DHT22;363;48.764;9.172;2023-02-28T07:05:35;1.60;97.60
758;DHT22;363;48.764;9.172;2023-02-28T07:08:01;1.50;97.40
758;DHT22;363;48.764;9.172;2023-02-28T07:10:27;1.70;98.10
758;DHT22;363;48.764;9.172;2023-02-28T07:12:52;2.30;98.60
758;DHT22;363;48.764;9.172;2023-02-28T07:15:18;1.90;97.70
758;DHT22;363;48.764;9.172;2023-02-28T07:17:43;2.00;97.70
758;DHT22;363;48.764;9.172;2023-02-28T07:20:09;1.90;97.80
758;DHT22;363;48.764;9.172;2023-02-28T07:22:35;2.10;96.70
758;DHT22;363;48.764;9.172;2023-02-28T07:25:01;2.10;96.30
758;DHT22;363;48.764;9.172;2023-02-28T07:27:26;1.50;96.10
758;DHT22;363;48.764;9.172;2023-02-28T07:29:53;1.80;96.40
758;DHT22;363;48.764;9.172;2023-02-28T07:32:19;1.90;96.10
758;DHT22;363;48.764;9.172;2023-02-28T07:34:45;1.90;95.60
758;DHT22;363;48.764;9.172;2023-02-28T07:37:11;1.80;95.50
758;DHT22;363;48.764;9.172;2023-02-28T07:39:36;1.80;95.50
758;DHT22;363;48.764;9.172;2023-02-28T07:42:06;1.50;95.30
758;DHT22;363;48.764;9.172;2023-02-28T07:44:34;1.60;95.40
758;DHT22;363;48.764;9.172;2023-02-28T07:47:00;1.10;95.50
758;DHT22;363;48.764;9.172;2023-02-28T07:49:26;1.80;95.70
758;DHT22;363;48.764;9.172;2023-02-28T07:51:52;1.70;96.50
758;DHT22;363;48.764;9.172;2023-02-28T07:54:17;1.80;95.90
758;DHT22;363;48.764;9.172;2023-02-28T07:56:43;1.80;95.60
758;DHT22;363;48.764;9.172;2023-02-28T07:59:08;1.50;94.90
758;DHT22;363;48.764;9.172;2023-02-28T08:01:34;1.90;94.90
758;DHT22;363;48.764;9.172;2023-02-28T08:04:00;2.00;95.20
758;DHT22;363;48.764;9.172;2023-02-28T08:06:25;2.40;95.10
758;DHT22;363;48.764;9.172;2023-02-28T08:08:52;2.20;95.00
758;DHT22;363;48.764;9.172;2023-02-28T08:11:18;1.70;94.40
758;DHT22;363;48.764;9.172;2023-02-28T08:13:45;2.00;94.40
758;DHT22;363;48.764;9.172;2023-02-28T08:16:12;2.00;94.70
758;DHT22;363;48.764;9.172;2023-02-28T08:18:42;2.00;94.70
758;DHT22;363;48.764;9.172;2023-02-28T08:21:08;2.10;94.70
758;DHT22;363;48.764;9.172;2023-02-28T08:23:34;2.00;94.30
758;DHT22;363;48.764;9.172;2023-02-28T08:26:00;2.00;94.50
758;DHT22;363;48.764;9.172;2023-02-28T08:28:26;1.80;94.60
758;DHT22;363;48.764;9.172;2023-02-28T08:30:51;2.00;94.20
758;DHT22;363;48.764;9.172;2023-02-28T08:33:17;1.80;94.30
758;DHT22;363;48.764;9.172;2023-02-28T08:35:43;1.30;94.10
758;DHT22;363;48.764;9.172;2023-02-28T08:38:08;1.50;94.10
758;DHT22;363;48.764;9.172;2023-02-28T08:40:34;2.00;94.40
758;DHT22;363;48.764;9.172;2023-02-28T08:42:59;1.70;94.60
758;DHT22;363;48.764;9.172;2023-02-28T08:45:25;1.90;94.20
758;DHT22;363;48.764;9.172;2023-02-28T08:47:51;2.10;94.70
758;DHT22;363;48.764;9.172;2023-02-28T08:50:18;1.90;94.20
758;DHT22;363;48.764;9.172;2023-02-28T08:52:44;2.20;94.30
758;DHT22;363;48.764;9.172;2023-02-28T08:55:10;2.10;94.30
758;DHT22;363;48.764;9.172;2023-02-28T08:57:35;1.90;93.70
758;DHT22;363;48.764;9.172;2023-02-28T09:00:02;2.10;94.30
758;DHT22;363;48.764;9.172;2023-02-28T09:02:30;2.30;94.30
758;DHT22;363;48.764;9.172;2023-02-28T09:04:57;2.20;94.20
758;DHT22;363;48.764;9.172;2023-02-28T09:07:23;2.00;94.30
758;DHT22;363;48.764;9.172;2023-02-28T09:09:49;2.30;94.20
758;DHT22;363;48.764;9.172;2023-02-28T09:12:25;2.10;93.80
758;DHT22;363;48.764;9.172;2023-02-28T09:14:51;2.10;93.90
758;DHT22;363;48.764;9.172;2023-02-28T09:17:18;2.10;93.50
758;DHT22;363;48.764;9.172;2023-02-28T09:19:44;2.20;93.80
758;DHT22;363;48.764;9.172;2023-02-28T09:22:11;2.40;94.10
758;DHT22;363;48.764;9.172;2023-02-28T09:24:37;2.50;94.00
758;DHT22;363;48.764;9.172;2023-02-28T09:27:03;2.40;93.80
758;DHT22;363;48.764;9.172;2023-02-28T09:29:29;2.90;93.90
758;DHT22;363;48.764;9.172;2023-02-28T09:31:55;2.20;93.50
758;DHT22;363;48.764;9.172;2023-02-28T09:34:21;2.40;93.10
758;DHT22;363;48.764;9.172;2023-02-28T09:36:47;2.50;93.10
758;DHT22;363;48.764;9.172;2023-02-28T09:39:13;2.10;92.90
758;DHT22;363;48.764;9.172;2023-02-28T09:41:45;2.70;93.40
758;DHT22;363;48.764;9.172;2023-02-28T09:44:27;2.60;93.60
758;DHT22;363;48.764;9.172;2023-02-28T09:46:57;2.60;93.20
758;DHT22;363;48.764;9.172;2023-02-28T09:49:31;2.20;92.70
758;DHT22;363;48.764;9.172;2023-02-28T09:52:28;3.10;93.10
758;DHT22;363;48.764;9.172;2023-02-28T09:54:52;2.20;92.80
758;DHT22;363;48.764;9.172;2023-02-28T09:57:33;3.00;92.80
758;DHT22;363;48.764;9.172;2023-02-28T10:00:23;3.10;92.30
758;DHT22;363;48.764;9.172;2023-02-28T10:09:13;3.40;91.70
758;DHT22;363;48.764;9.172;2023-02-28T10:11:33;3.50;91.70
758;DHT22;363;48.764;9.172;2023-02-28T10:14:21;3.40;91.30
758;DHT22;363;48.764;9.172;2023-02-28T10:17:09;3.50;91.20
758;DHT22;363;48.764;9.172;2023-02-28T10:24:46;3.30;91.00
758;DHT22;363;48.764;9.172;2023-02-28T10:29:49;3.20;91.10
758;DHT22;363;48.764;9.172;2023-02-28T10:32:17;3.60;91.00
758;DHT22;363;48.764;9.172;2023-02-28T10:34:44;3.00;91.50
758;DHT22;363;48.764;9.172;2023-02-28T10:37:12;3.80;91.40
758;DHT22;363;48.764;9.172;2023-02-28T10:39:44;3.40;91.00
758;DHT22;363;48.764;9.172;2023-02-28T10:45:11;3.90;90.70
758;DHT22;363;48.764;9.172;2023-02-28T10:47:52;4.10;89.30
758;DHT22;363;48.764;9.172;2023-02-28T10:56:04;4.30;88.60
758;DHT22;363;48.764;9.172;2023-02-28T11:01:39;4.40;87.80
758;DHT22;363;48.764;9.172;2023-02-28T11:04:35;4.50;87.90
758;DHT22;363;48.764;9.172;2023-02-28T11:07:23;4.80;87.50
758;DHT22;363;48.764;9.172;2023-02-28T11:09:50;4.80;87.40
758;DHT22;363;48.764;9.172;2023-02-28T11:12:21;4.80;86.90
758;DHT22;363;48.764;9.172;2023-02-28T11:14:54;5.00;87.10
758;DHT22;363;48.764;9.172;2023-02-28T11:17:26;4.70;85.70
758;DHT22;363;48.764;9.172;2023-02-28T11:19:58;4.60;85.60
758;DHT22;363;48.764;9.172;2023-02-28T11:22:29;5.20;86.10
758;DHT22;363;48.764;9.172;2023-02-28T11:24:59;4.30;85.70
758;DHT22;363;48.764;9.172;2023-02-28T11:29:59;6.40;81.40
758;DHT22;363;48.764;9.172;2023-02-28T11:32:29;7.20;78.20
758;DHT22;363;48.764;9.172;2023-02-28T11:37:38;9.00;72.20
758;DHT22;363;48.764;9.172;2023-02-28T11:40:18;8.80;67.70
758;DHT22;363;48.764;9.172;2023-02-28T12:07:47;8.20;71.20
758;DHT22;363;48.764;9.172;2023-02-28T12:10:35;7.60;70.20
758;DHT22;363;48.764;9.172;2023-02-28T12:16:07;7.90;71.30
758;DHT22;363;48.764;9.172;2023-02-28T12:24:28;7.40;72.50
758;DHT22;363;48.764;9.172;2023-02-28T12:27:01;7.60;71.60
758;DHT22;363;48.764;9.172;2023-02-28T12:29:29;6.60;71.50
758;DHT22;363;48.764;9.172;2023-02-28T12:32:04;7.20;72.30
758;DHT22;363;48.764;9.172;2023-02-28T12:34:36;7.50;72.30
758;DHT22;363;48.764;9.172;2023-02-28T12:37:07;7.60;71.20
758;DHT22;363;48.764;9.172;2023-02-28T12:39:38;7.10;71.20
758;DHT22;363;48.764;9.172;2023-02-28T12:42:28;7.50;71.80
758;DHT22;363;48.764;9.172;2023-02-28T12:44:59;6.70;72.90
758;DHT22;363;48.764;9.172;2023-02-28T12:47:26;6.60;73.80
758;DHT22;363;48.764;9.172;2023-02-28T12:50:02;6.50;74.40
758;DHT22;363;48.764;9.172;2023-02-28T12:52:40;6.60;73.70
758;DHT22;363;48.764;9.172;2023-02-28T12:59:00;7.00;73.80
758;DHT22;363;48.764;9.172;2023-02-28T13:09:25;7.00;73.30
758;DHT22;363;48.764;9.172;2023-02-28T13:11:53;7.00;72.80
758;DHT22;363;48.764;9.172;2023-02-28T13:14:45;7.10;73.50
758;DHT22;363;48.764;9.172;2023-02-28T13:17:11;7.40;74.00
758;DHT22;363;48.764;9.172;2023-02-28T13:19:38;7.20;72.00
758;DHT22;363;48.764;9.172;2023-02-28T13:22:57;7.10;72.80
758;DHT22;363;48.764;9.172;2023-02-28T13:27:52;6.80;71.80
758;DHT22;363;48.764;9.172;2023-02-28T13:38:52;6.90;73.60
758;DHT22;363;48.764;9.172;2023-02-28T13:44:19;6.90;74.10
758;DHT22;363;48.764;9.172;2023-02-28T13:51:54;6.90;74.00
758;DHT22;363;48.764;9.172;2023-02-28T13:57:42;7.20;73.60
758;DHT22;363;48.764;9.172;2023-02-28T14:03:28;6.90;73.50
758;DHT22;363;48.764;9.172;2023-02-28T14:11:33;6.90;72.90
758;DHT22;363;48.764;9.172;2023-02-28T14:14:00;7.40;73.30
758;DHT22;363;48.764;9.172;2023-02-28T14:16:36;7.40;73.20
758;DHT22;363;48.764;9.172;2023-02-28T14:21:39;7.20;72.60
758;DHT22;363;48.764;9.172;2023-02-28T14:37:49;7.00;72.80
758;DHT22;363;48.764;9.172;2023-02-28T14:43:02;7.00;73.70
758;DHT22;363;48.764;9.172;2023-02-28T14:45:30;7.00;73.90
758;DHT22;363;48.764;9.172;2023-02-28T14:47:57;7.30;72.70
758;DHT22;363;48.764;9.172;2023-02-28T14:50:31;6.90;72.60
758;DHT22;363;48.764;9.172;2023-02-28T14:52:58;6.80;72.60
758;DHT22;363;48.764;9.172;2023-02-28T14:55:28;6.90;72.80
758;DHT22;363;48.764;9.172;2023-02-28T15:02:50;7.10;73.20
758;DHT22;363;48.764;9.172;2023-02-28T15:05:31;7.20;73.80
758;DHT22;363;48.764;9.172;2023-02-28T15:08:13;6.90;73.20
758;DHT22;363;48.764;9.172;2023-02-28T15:10:45;7.00;73.50
758;DHT22;363;48.764;9.172;2023-02-28T15:13:16;6.20;73.50
758;DHT22;363;48.764;9.172;2023-02-28T15:16:01;6.80;74.20
758;DHT22;363;48.764;9.172;2023-02-28T15:18:47;6.90;74.70
758;DHT22;363;48.764;9.172;2023-02-28T15:21:41;6.60;73.40
758;DHT22;363;48.764;9.172;2023-02-28T15:24:19;6.90;74.00
758;DHT22;363;48.764;9.172;2023-02-28T15:26:57;6.60;74.80
758;DHT22;363;48.764;9.172;2023-02-28T15:29:26;6.80;74.30
758;DHT22;363;48.764;9.172;2023-02-28T15:32:00;6.80;73.80
758;DHT22;363;48.764;9.172;2023-02-28T15:34:38;7.00;75.00
758;DHT22;363;48.764;9.172;2023-02-28T15:37:46;6.80;74.70
758;DHT22;363;48.764;9.172;2023-02-28T15:43:12;6.80;74.80
758;DHT22;363;48.764;9.172;2023-02-28T15:45:46;7.00;75.70
758;DHT22;363;48.764;9.172;2023-02-28T15:50:44;6.90;75.80
758;DHT22;363;48.764;9.172;2023-02-28T15:53:15;6.70;75.60
758;DHT22;363;48.764;9.172;2023-02-28T15:55:41;6.60;75.90
758;DHT22;363;48.764;9.172;2023-02-28T15:58:11;6.40;76.20
758;DHT22;363;48.764;9.172;2023-02-28T16:00:38;7.20;76.70
758;DHT22;363;48.764;9.172;2023-02-28T16:03:36;6.50;76.00
758;DHT22;363;48.764;9.172;2023-02-28T16:08:47;6.50;77.10
758;DHT22;363;48.764;9.172;2023-02-28T16:11:14;6.40;76.50
758;DHT22;363;48.764;9.172;2023-02-28T16:13:40;6.40;76.80
758;DHT22;363;48.764;9.172;2023-02-28T16:16:06;6.70;77.10
758;DHT22;363;48.764;9.172;2023-02-28T16:18:31;6.40;76.40
758;DHT22;363;48.764;9.172;2023-02-28T16:20:57;6.80;77.40
758;DHT22;363;48.764;9.172;2023-02-28T16:23:22;6.70;77.20
758;DHT22;363;48.764;9.172;2023-02-28T16:25:48;6.50;77.00
758;DHT22;363;48.764;9.172;2023-02-28T16:28:27;6.40;75.90
758;DHT22;363;48.764;9.172;2023-02-28T16:30:56;6.50;77.30
758;DHT22;363;48.764;9.172;2023-02-28T16:33:22;6.60;77.80
758;DHT22;363;48.764;9.172;2023-02-28T16:35:49;6.60;77.90
758;DHT22;363;48.764;9.172;2023-02-28T16:38:15;6.40;77.80
758;DHT22;363;48.764;9.172;2023-02-28T16:40:40;6.20;77.30
758;DHT22;363;48.764;9.172;2023-02-28T16:43:26;6.20;78.50
758;DHT22;363;48.764;9.172;2023-02-28T16:45:56;6.10;78.50
758;DHT22;363;48.764;9.172;2023-02-28T16:48:23;6.00;78.90
758;DHT22;363;48.764;9.172;2023-02-28T16:50:50;5.80;79.10
758;DHT22;363;48.764;9.172;2023-02-28T16:53:16;5.90;79.80
758;DHT22;363;48.764;9.172;2023-02-28T16:55:42;5.40;79.50
758;DHT22;363;48.764;9.172;2023-02-28T16:58:14;5.70;79.80
758;DHT22;363;48.764;9.172;2023-02-28T17:00:40;6.10;80.40
758;DHT22;363;48.764;9.172;2023-02-28T17:03:25;5.90;80.40
758;DHT22;363;48.764;9.172;2023-02-28T17:05:51;5.60;80.20
758;DHT22;363;48.764;9.172;2023-02-28T17:08:17;5.50;80.80
758;DHT22;363;48.764;9.172;2023-02-28T17:10:43;5.80;80.70
758;DHT22;363;48.764;9.172;2023-02-28T17:13:08;5.40;81.10
758;DHT22;363;48.764;9.172;2023-02-28T17:15:35;5.20;80.40
758;DHT22;363;48.764;9.172;2023-02-28T17:18:01;5.70;81.60
758;DHT22;363;48.764;9.172;2023-02-28T17:20:27;5.40;81.50
758;DHT22;363;48.764;9.172;2023-02-28T17:22:54;5.70;82.00
758;DHT22;363;48.764;9.172;2023-02-28T17:25:20;5.30;81.90
758;DHT22;363;48.764;9.172;2023-02-28T17:27:46;5.40;81.30
758;DHT22;363;48.764;9.172;2023-02-28T17:30:20;5.00;81.90
758;DHT22;363;48.764;9.172;2023-02-28T17:32:46;5.30;82.70
758;DHT22;363;48.764;9.172;2023-02-28T17:35:12;5.30;83.10
758;DHT22;363;48.764;9.172;2023-02-28T17:37:38;5.20;83.20
758;DHT22;363;48.764;9.172;2023-02-28T17:40:04;5.70;84.00
758;DHT22;363;48.764;9.172;2023-02-28T17:42:30;5.10;83.60
758;DHT22;363;48.764;9.172;2023-02-28T17:44:56;5.30;83.50
758;DHT22;363;48.764;9.172;2023-02-28T17:47:22;5.10;83.70
758;DHT22;363;48.764;9.172;2023-02-28T17:49:47;5.20;83.90
758;DHT22;363;48.764;9.172;2023-02-28T17:52:13;5.20;84.10
758;DHT22;363;48.764;9.172;2023-02-28T17:54:38;5.20;84.40
758;DHT22;363;48.764;9.172;2023-02-28T17:57:04;5.20;84.70
758;DHT22;363;48.764;9.172;2023-02-28T17:59:30;5.10;84.80
758;DHT22;363;48.764;9.172;2023-02-28T18:02:01;5.20;85.60
758;DHT22;363;48.764;9.172;2023-02-28T18:04:27;5.20;85.40
758;DHT22;363;48.764;9.172;2023-02-28T18:06:53;5.00;85.50
758;DHT22;363;48.764;9.172;2023-02-28T18:09:22;4.80;85.20
758;DHT22;363;48.764;9.172;2023-02-28T18:11:50;4.80;87.20
758;DHT22;363;48.764;9.172;2023-02-28T18:14:17;4.80;88.00
758;DHT22;363;48.764;9.172;2023-02-28T18:16:43;4.60;88.20
758;DHT22;363;48.764;9.172;2023-02-28T18:19:12;4.70;88.50
758;DHT22;363;48.764;9.172;2023-02-28T18:21:49;4.70;89.00
758;DHT22;363;48.764;9.172;2023-02-28T18:24:16;4.70;88.90
758;DHT22;363;48.764;9.172;2023-02-28T18:26:43;4.00;88.40
758;DHT22;363;48.764;9.172;2023-02-28T18:29:24;5.10;89.80
758;DHT22;363;48.764;9.172;2023-02-28T18:31:51;4.50;89.00
758;DHT22;363;48.764;9.172;2023-02-28T18:34:17;4.60;88.40
758;DHT22;363;48.764;9.172;2023-02-28T18:36:43;4.60;89.20
758;DHT22;363;48.764;9.172;2023-02-28T18:39:11;3.90;88.80
758;DHT22;363;48.764;9.172;2023-02-28T18:41:37;4.90;90.20
758;DHT22;363;48.764;9.172;2023-02-28T18:44:03;4.30;90.20
758;DHT22;363;48.764;9.172;2023-02-28T18:46:29;4.20;90.60
758;DHT22;363;48.764;9.172;2023-02-28T18:48:54;4.30;90.40
758;DHT22;363;48.764;9.172;2023-02-28T18:51:23;4.30;90.60
758;DHT22;363;48.764;9.172;2023-02-28T18:53:49;4.20;90.50
758;DHT22;363;48.764;9.172;2023-02-28T18:56:17;4.10;90.60
758;DHT22;363;48.764;9.172;2023-02-28T18:58:43;4.10;90.90
758;DHT22;363;48.764;9.172;2023-02-28T19:01:18;4.10;90.90
758;DHT22;363;48.764;9.172;2023-02-28T19:03:45;4.10;91.00
758;DHT22;363;48.764;9.172;2023-02-28T19:06:12;4.20;91.10
758;DHT22;363;48.764;9.172;2023-02-28T19:08:37;4.00;91.10
758;DHT22;363;48.764;9.172;2023-02-28T19:11:15;4.00;91.10
758;DHT22;363;48.764;9.172;2023-02-28T19:13:41;3.90;91.20
758;DHT22;363;48.764;9.172;2023-02-28T19:16:09;4.10;91.40
758;DHT22;363;48.764;9.172;2023-02-28T19:18:36;3.90;91.40
758;DHT22;363;48.764;9.172;2023-02-28T19:21:02;3.90;91.70
758;DHT22;363;48.764;9.172;2023-02-28T19:23:30;3.80;91.90
758;DHT22;363;48.764;9.172;2023-02-28T19:25:55;3.70;92.60
758;DHT22;363;48.764;9.172;2023-02-28T19:28:21;3.70;92.70
758;DHT22;363;48.764;9.172;2023-02-28T19:30:48;3.20;92.60
758;DHT22;363;48.764;9.172;2023-02-28T19:33:19;3.20;92.70
758;DHT22;363;48.764;9.172;2023-02-28T19:35:45;2.60;93.40
758;DHT22;363;48.764;9.172;2023-02-28T19:38:10;3.20;93.80
758;DHT22;363;48.764;9.172;2023-02-28T19:40:36;2.80;94.40
758;DHT22;363;48.764;9.172;2023-02-28T19:43:02;2.80;94.60
758;DHT22;363;48.764;9.172;2023-02-28T19:45:28;2.80;95.10
758;DHT22;363;48.764;9.172;2023-02-28T19:47:54;2.60;95.50
758;DHT22;363;48.764;9.172;2023-02-28T19:50:21;2.00;95.40
758;DHT22;363;48.764;9.172;2023-02-28T19:52:47;2.70;96.10
758;DHT22;363;48.764;9.172;2023-02-28T19:55:18;2.10;96.10
758;DHT22;363;48.764;9.172;2023-02-28T19:57:44;2.40;96.20
758;DHT22;363;48.764;9.172;2023-02-28T20:00:11;2.30;96.40
758;DHT22;363;48.764;9.172;2023-02-28T20:02:39;2.30;96.40
758;DHT22;363;48.764;9.172;2023-02-28T20:05:05;2.50;97.20